Time;durP1;ratioP1;P1;durP2;ratioP2;P2;SDS_P1;SDS_P2;PMS_P1;PMS_P2;Temp;Humidity;BMP_temperature;BMP_pressure;BME280_temperature;BME280_humidity;BME280_pressure;Samples;Min_cycle;Max_cycle;Signal;HPM_P1;HPM_P2
2023/09/21 00:01:17;;;;;;;4.15;2.13;;;;;;;20.21;36.75;99836.44;4922548;29;20051;-81
2023/09/21 00:03:48;;;;;;;3.25;1.52;;;;;;;20.21;36.51;99830.03;4932863;29;20628;-81
2023/09/21 00:06:18;;;;;;;3.03;1.77;;;;;;;20.20;36.70;99843.06;4931593;29;20059;-81
2023/09/21 00:08:48;;;;;;;3.55;1.92;;;;;;;20.20;36.86;99833.91;4944422;28;20154;-81
2023/09/21 00:11:17;;;;;;;3.17;1.80;;;;;;;20.19;36.49;99835.84;4943811;29;20158;-82
2023/09/21 00:13:47;;;;;;;3.58;1.60;;;;;;;20.21;36.42;99830.88;4944339;29;20062;-81
2023/09/21 00:16:18;;;;;;;3.55;1.60;;;;;;;20.19;36.39;99821.09;4936911;28;20153;-83
2023/09/21 00:18:46;;;;;;;3.35;1.80;;;;;;;20.17;36.67;99818.53;4923961;29;20091;-81
2023/09/21 00:21:15;;;;;;;3.45;2.00;;;;;;;20.16;36.86;99815.97;4921890;29;20047;-84
2023/09/21 00:23:44;;;;;;;3.33;2.00;;;;;;;20.15;36.38;99806.78;4933761;29;20413;-83
2023/09/21 00:26:14;;;;;;;3.80;2.22;;;;;;;20.13;36.48;99795.03;4950909;28;20085;-80
2023/09/21 00:28:48;;;;;;;4.25;2.15;;;;;;;20.15;36.61;99804.00;4920646;29;20059;-82
2023/09/21 00:31:16;;;;;;;3.55;1.90;;;;;;;20.13;36.87;99786.72;4917569;28;20063;-81
2023/09/21 00:33:44;;;;;;;4.82;1.80;;;;;;;20.11;36.57;99790.81;4910478;29;20059;-82
2023/09/21 00:36:13;;;;;;;3.30;1.98;;;;;;;20.10;36.52;99783.53;4913243;29;20056;-82
2023/09/21 00:38:41;;;;;;;4.07;1.90;;;;;;;20.11;36.70;99782.47;4917506;29;20157;-84
2023/09/21 00:41:10;;;;;;;3.17;1.90;;;;;;;20.09;36.55;99770.72;4919984;29;20508;-83
2023/09/21 00:43:39;;;;;;;3.40;1.98;;;;;;;20.09;36.73;99776.28;4920014;29;20059;-83
2023/09/21 00:46:09;;;;;;;3.55;2.00;;;;;;;20.10;36.54;99770.50;4918507;29;20051;-82
2023/09/21 00:48:42;;;;;;;2.92;1.70;;;;;;;20.08;36.74;99755.97;4918589;29;20051;-82
2023/09/21 00:51:13;;;;;;;3.45;1.73;;;;;;;20.07;36.63;99754.28;4935857;28;20146;-82
2023/09/21 00:53:45;;;;;;;3.53;1.88;;;;;;;20.05;36.59;99748.09;4918998;29;20047;-82
2023/09/21 00:56:17;;;;;;;3.53;1.73;;;;;;;20.06;36.84;99747.00;4917781;28;20470;-82
2023/09/21 00:58:48;;;;;;;2.88;1.52;;;;;;;20.04;36.51;99751.09;4931894;29;20143;-83
2023/09/21 01:01:19;;;;;;;4.05;1.98;;;;;;;20.05;36.72;99748.09;4917484;29;20511;-82
2023/09/21 01:03:50;;;;;;;3.20;1.48;;;;;;;19.99;36.74;99747.06;4936761;28;20137;-82
2023/09/21 01:06:19;;;;;;;4.35;1.52;;;;;;;20.00;36.61;99731.25;4919399;29;20050;-82
2023/09/21 01:08:49;;;;;;;3.50;1.95;;;;;;;20.02;36.65;99740.22;4930474;29;20142;-82
2023/09/21 01:11:19;;;;;;;2.92;1.60;;;;;;;20.00;36.78;99734.03;4929607;28;20499;-83
2023/09/21 01:13:48;;;;;;;3.30;1.67;;;;;;;19.97;36.79;99735.31;4915330;29;20444;-82
2023/09/21 01:16:18;;;;;;;3.40;1.77;;;;;;;19.99;36.49;99732.31;4916666;28;20055;-83
2023/09/21 01:18:46;;;;;;;3.53;1.85;;;;;;;19.97;36.66;99729.75;4931444;28;20063;-82
2023/09/21 01:21:21;;;;;;;2.88;1.55;;;;;;;19.96;36.57;99728.06;4917951;29;20048;-82
2023/09/21 01:23:52;;;;;;;4.93;1.80;;;;;;;19.95;36.84;99729.13;4951244;28;20376;-82
2023/09/21 01:26:20;;;;;;;4.13;1.70;;;;;;;19.93;36.98;99722.13;4918772;29;20058;-82
2023/09/21 01:28:49;;;;;;;3.17;1.60;;;;;;;19.92;36.60;99712.06;4936406;28;20692;-82
2023/09/21 01:31:17;;;;;;;3.22;1.73;;;;;;;19.91;36.44;99718.69;4914779;29;20109;-82
2023/09/21 01:33:46;;;;;;;3.08;1.88;;;;;;;19.89;36.69;99712.47;4952378;28;20062;-82
2023/09/21 01:36:18;;;;;;;2.78;1.52;;;;;;;19.88;36.65;99717.19;4929860;29;20051;-82
2023/09/21 01:38:47;;;;;;;2.90;1.70;;;;;;;19.84;36.63;99703.97;4919644;28;20110;-83
2023/09/21 01:44:07;;;;;;;3.05;1.85;;;;;;;19.84;36.68;99715.09;4927287;29;20047;-82
2023/09/21 01:46:35;;;;;;;2.97;1.60;;;;;;;19.82;36.88;99703.34;4917616;29;20057;-82
2023/09/21 01:49:03;;;;;;;3.58;1.67;;;;;;;19.80;36.91;99703.56;4920901;29;20054;-82
2023/09/21 01:51:32;;;;;;;3.53;1.77;;;;;;;19.79;36.94;99701.84;4916586;29;20058;-83
2023/09/21 01:54:00;;;;;;;4.07;2.00;;;;;;;19.79;36.63;99701.03;4921887;29;20047;-83
2023/09/21 01:56:59;;;;;;;3.83;2.10;;;;;;;19.79;37.00;99701.84;4919072;29;20054;-82
2023/09/21 01:59:30;;;;;;;3.67;1.90;;;;;;;19.78;36.92;99697.41;4932555;28;20126;-83
2023/09/21 02:01:58;;;;;;;3.63;2.15;;;;;;;19.75;36.83;99691.44;4917384;29;20054;-83
2023/09/21 02:04:28;;;;;;;4.03;2.00;;;;;;;19.75;36.66;99692.28;4924282;29;20059;-83
2023/09/21 02:06:56;;;;;;;3.20;1.80;;;;;;;19.75;36.79;99686.72;4923356;29;20058;-82
2023/09/21 02:09:26;;;;;;;3.88;2.00;;;;;;;19.73;36.67;99680.53;4923512;29;20052;-82
2023/09/21 02:11:54;;;;;;;3.42;1.95;;;;;;;19.71;37.06;99682.69;4922985;29;20075;-83
2023/09/21 02:14:22;;;;;;;3.20;1.95;;;;;;;19.72;36.53;99680.75;4920132;29;20052;-82
2023/09/21 02:16:51;;;;;;;4.07;2.10;;;;;;;19.72;36.96;99680.75;4919376;28;20538;-83
2023/09/21 02:19:20;;;;;;;3.05;1.85;;;;;;;19.70;36.74;99677.38;4931950;29;20063;-82
2023/09/21 02:21:50;;;;;;;3.22;1.85;;;;;;;19.69;37.08;99672.91;4918178;29;20735;-82
2023/09/21 02:24:18;;;;;;;3.63;2.00;;;;;;;19.69;36.87;99668.19;4921976;29;20207;-82
2023/09/21 02:26:45;;;;;;;3.83;1.83;;;;;;;19.68;36.88;99668.41;4939114;29;20047;-82
2023/09/21 02:29:14;;;;;;;2.67;1.67;;;;;;;19.67;36.87;99673.13;4923569;28;20047;-83
2023/09/21 02:31:43;;;;;;;3.53;1.52;;;;;;;19.68;37.05;99662.84;4921016;29;20095;-82
2023/09/21 02:34:12;;;;;;;4.55;1.88;;;;;;;19.68;36.58;99660.94;4939138;28;20070;-83
2023/09/21 02:36:42;;;;;;;3.58;1.80;;;;;;;19.63;37.10;99653.25;4928028;29;20082;-81
2023/09/21 02:39:10;;;;;;;2.72;1.58;;;;;;;19.64;37.18;99654.13;4927959;29;20051;-83
2023/09/21 02:41:38;;;;;;;4.05;1.55;;;;;;;19.62;37.05;99646.00;4924625;29;20571;-83
2023/09/21 02:44:07;;;;;;;2.63;1.50;;;;;;;19.61;36.76;99643.47;4920483;29;20048;-82
2023/09/21 02:46:35;;;;;;;3.97;1.40;;;;;;;19.60;36.72;99641.78;4918532;29;20169;-84
2023/09/21 02:49:04;;;;;;;3.85;1.73;;;;;;;19.59;37.03;99635.38;4923848;29;20059;-83
2023/09/21 02:51:34;;;;;;;3.90;1.60;;;;;;;19.58;37.17;99630.88;4924925;29;20052;-82
2023/09/21 02:54:03;;;;;;;2.92;1.70;;;;;;;19.58;37.21;99632.81;4922351;29;20181;-82
2023/09/21 02:56:31;;;;;;;3.40;1.73;;;;;;;19.55;36.98;99625.78;4922331;29;20051;-82
2023/09/21 02:59:01;;;;;;;2.72;1.38;;;;;;;19.55;37.04;99633.25;4930004;29;20054;-83
2023/09/21 03:01:30;;;;;;;2.88;1.40;;;;;;;19.54;36.87;99632.38;4932814;29;20110;-83
2023/09/21 03:03:58;;;;;;;3.05;1.60;;;;;;;19.52;36.74;99623.47;4929296;29;20055;-84
2023/09/21 03:06:27;;;;;;;3.25;1.50;;;;;;;19.52;36.80;99625.38;4926405;29;20098;-83
2023/09/21 03:08:56;;;;;;;3.25;1.60;;;;;;;19.52;37.05;99625.38;4926902;29;20039;-82
2023/09/21 03:11:25;;;;;;;3.60;1.60;;;;;;;19.49;37.04;99620.25;4925790;29;20047;-83
2023/09/21 03:13:53;;;;;;;2.45;1.50;;;;;;;19.49;37.07;99617.50;4927262;29;20047;-84
2023/09/21 03:16:21;;;;;;;2.80;1.67;;;;;;;19.46;36.90;99607.69;4923188;28;20408;-83
2023/09/21 03:18:49;;;;;;;3.72;1.55;;;;;;;19.46;37.07;99604.09;4946498;29;20067;-83
2023/09/21 03:21:18;;;;;;;2.90;1.52;;;;;;;19.46;37.18;99613.22;4927361;29;20082;-83
2023/09/21 03:23:47;;;;;;;2.47;1.40;;;;;;;19.44;37.19;99603.44;4967484;28;20448;-83
2023/09/21 03:26:18;;;;;;;3.20;1.40;;;;;;;19.47;37.25;99612.16;4978943;28;20132;-82
2023/09/21 03:28:47;;;;;;;3.08;1.60;;;;;;;19.45;37.15;99610.69;4940101;29;20055;-82
2023/09/21 03:31:15;;;;;;;2.30;1.40;;;;;;;19.44;37.05;99598.75;4945473;28;20031;-83
2023/09/21 03:33:46;;;;;;;2.92;1.60;;;;;;;19.42;37.10;99595.34;4944396;28;20122;-83
2023/09/21 03:36:16;;;;;;;2.85;1.60;;;;;;;19.42;37.31;99594.50;4933512;29;20138;-84
2023/09/21 03:38:44;;;;;;;3.70;1.85;;;;;;;19.41;37.41;99595.56;4916391;29;20051;-83
2023/09/21 03:41:14;;;;;;;3.95;1.60;;;;;;;19.41;37.23;99587.22;4927744;29;20078;-83
2023/09/21 03:43:43;;;;;;;3.75;1.60;;;;;;;19.42;37.33;99588.94;4925268;29;20048;-83
2023/09/21 03:46:12;;;;;;;3.40;1.65;;;;;;;19.38;37.32;99582.97;4926281;29;20059;-84
2023/09/21 03:48:40;;;;;;;2.70;1.40;;;;;;;19.40;37.02;99582.75;4924660;28;20181;-83
2023/09/21 03:51:10;;;;;;;3.67;1.65;;;;;;;19.37;37.18;99580.44;4927105;29;20484;-83
2023/09/21 03:53:39;;;;;;;4.40;1.65;;;;;;;19.38;37.42;99577.41;4918488;29;20146;-84
2023/09/21 03:56:07;;;;;;;2.88;1.35;;;;;;;19.38;37.59;99568.28;4923887;29;20905;-83
2023/09/21 03:58:35;;;;;;;3.53;1.70;;;;;;;19.38;37.26;99571.06;4920649;29;20856;-84
2023/09/21 04:01:08;;;;;;;2.90;1.40;;;;;;;19.39;37.18;99569.94;4920913;29;20052;-83
2023/09/21 04:03:36;;;;;;;2.95;1.50;;;;;;;19.33;37.44;99556.97;4923309;29;20043;-84
2023/09/21 04:06:06;;;;;;;2.38;1.30;;;;;;;19.35;37.18;99555.69;4928755;29;20104;-83
2023/09/21 04:08:35;;;;;;;2.78;1.60;;;;;;;19.35;37.11;99557.63;4941024;28;20491;-83
2023/09/21 04:11:03;;;;;;;3.05;1.77;;;;;;;19.32;37.43;99542.25;4924977;29;20043;-83
2023/09/21 04:13:31;;;;;;;4.07;1.75;;;;;;;19.32;37.16;99547.81;4921956;29;20662;-82
2023/09/21 04:15:59;;;;;;;3.83;1.90;;;;;;;19.33;37.48;99541.19;4914149;29;20562;-83
2023/09/21 04:18:28;;;;;;;3.10;1.83;;;;;;;19.34;37.18;99537.34;4936014;28;20043;-83
2023/09/21 04:20:57;;;;;;;3.25;1.90;;;;;;;19.32;37.08;99535.84;4919517;29;20044;-82
2023/09/21 04:23:45;;;;;;;3.90;1.77;;;;;;;19.28;37.17;99532.69;4922423;29;20047;-83
2023/09/21 04:26:15;;;;;;;3.97;1.63;;;;;;;19.29;37.50;99537.19;4920379;29;20051;-82
2023/09/21 04:28:46;;;;;;;3.67;1.50;;;;;;;19.27;37.45;99533.78;4923640;29;20344;-84
2023/09/21 04:31:15;;;;;;;4.18;1.42;;;;;;;19.26;37.39;99540.38;4923772;29;20752;-83
2023/09/21 04:33:46;;;;;;;2.75;1.70;;;;;;;19.28;37.24;99541.03;4941186;28;20420;-83
2023/09/21 04:36:14;;;;;;;3.65;1.60;;;;;;;19.26;37.44;99538.47;4955426;28;20047;-83
2023/09/21 04:38:42;;;;;;;2.85;1.48;;;;;;;19.27;37.37;99547.63;4923491;29;20159;-83
2023/09/21 04:41:14;;;;;;;2.97;1.52;;;;;;;19.29;37.61;99547.41;4923683;29;20051;-83
2023/09/21 04:43:45;;;;;;;2.85;1.50;;;;;;;19.26;37.51;99541.25;4935866;28;20063;-84
2023/09/21 04:46:13;;;;;;;3.28;1.80;;;;;;;19.27;37.24;99539.31;4916117;29;20062;-83
2023/09/21 04:48:42;;;;;;;2.63;1.63;;;;;;;19.28;37.38;99538.25;4921276;29;20237;-83
2023/09/21 04:51:14;;;;;;;3.80;1.75;;;;;;;19.30;37.72;99547.16;4921041;29;20442;-85
2023/09/21 04:53:45;;;;;;;3.10;1.83;;;;;;;19.29;37.61;99539.09;4916728;29;20497;-85
2023/09/21 04:56:17;;;;;;;3.15;1.73;;;;;;;19.29;37.21;99539.09;4922603;28;20050;-86
2023/09/21 04:58:46;;;;;;;3.65;1.75;;;;;;;19.25;37.05;99534.00;4922733;29;20350;-84
2023/09/21 05:01:15;;;;;;;3.45;1.60;;;;;;;19.27;37.44;99531.84;4921157;29;20381;-85
2023/09/21 05:03:44;;;;;;;4.05;1.70;;;;;;;19.27;37.16;99536.53;4926240;29;20062;-85
2023/09/21 05:06:14;;;;;;;3.60;1.90;;;;;;;19.29;37.19;99539.09;4921344;29;20044;-85
2023/09/21 05:08:42;;;;;;;3.30;1.83;;;;;;;19.26;37.10;99534.84;4937661;29;20078;-84
2023/09/21 05:11:11;;;;;;;3.28;1.85;;;;;;;19.26;37.56;99546.78;4922235;29;20118;-85
2023/09/21 05:13:40;;;;;;;4.25;1.90;;;;;;;19.22;37.35;99537.19;4932703;29;20047;-85
2023/09/21 05:16:10;;;;;;;3.40;1.63;;;;;;;19.24;37.48;99539.75;4918068;29;20073;-84
2023/09/21 05:18:38;;;;;;;3.80;1.60;;;;;;;19.24;37.32;99539.75;4937010;29;20047;-85
2023/09/21 05:21:07;;;;;;;3.47;1.55;;;;;;;19.24;37.70;99542.53;4924306;29;20062;-85
2023/09/21 05:23:38;;;;;;;2.97;1.88;;;;;;;19.25;37.44;99552.56;4925670;29;20040;-85
2023/09/21 05:26:06;;;;;;;3.45;1.70;;;;;;;19.21;37.65;99534.66;4922977;29;20134;-86
2023/09/21 05:28:34;;;;;;;2.97;1.80;;;;;;;19.21;37.69;99540.22;4927118;29;20055;-85
2023/09/21 05:31:05;;;;;;;3.47;1.90;;;;;;;19.21;37.43;99546.59;4933630;28;20052;-85
2023/09/21 05:33:33;;;;;;;3.53;2.13;;;;;;;19.21;37.46;99543.81;4921738;29;20054;-85
2023/09/21 05:36:04;;;;;;;3.15;1.80;;;;;;;19.21;37.75;99552.13;4922516;29;20075;-84
2023/09/21 05:38:33;;;;;;;3.67;1.70;;;;;;;19.18;37.79;99555.34;4936394;29;20047;-85
2023/09/21 05:41:04;;;;;;;2.58;1.52;;;;;;;19.22;37.72;99553.84;4934904;29;20075;-85
2023/09/21 05:43:32;;;;;;;3.15;1.80;;;;;;;19.19;37.95;99548.72;4933472;28;20062;-84
2023/09/21 05:46:01;;;;;;;4.28;1.80;;;;;;;19.20;37.83;99544.91;4920544;29;20130;-85
2023/09/21 05:48:29;;;;;;;2.67;1.38;;;;;;;19.20;37.59;99549.56;4935822;29;20047;-85
2023/09/21 05:50:57;;;;;;;3.40;1.60;;;;;;;19.21;38.06;99545.75;4924169;29;20044;-85
2023/09/21 05:53:26;;;;;;;2.72;1.50;;;;;;;19.20;38.09;99546.81;4938300;28;20094;-85
2023/09/21 05:55:54;;;;;;;3.80;2.10;;;;;;;19.21;38.13;99545.75;4926862;29;20102;-86
2023/09/21 05:58:23;;;;;;;3.30;1.63;;;;;;;19.22;38.02;99542.75;4926118;29;20056;-85
2023/09/21 06:00:52;;;;;;;2.92;1.60;;;;;;;19.22;38.20;99550.22;4943975;28;20103;-85
2023/09/21 06:03:20;;;;;;;3.65;1.80;;;;;;;19.21;37.96;99548.53;4965480;28;20043;-85
2023/09/21 06:05:48;;;;;;;3.00;1.60;;;;;;;19.21;38.03;99548.53;4931615;29;20517;-85
2023/09/21 06:08:19;;;;;;;3.42;1.60;;;;;;;19.21;37.76;99551.31;4932172;29;20109;-85
2023/09/21 06:10:52;;;;;;;3.35;1.58;;;;;;;19.20;38.13;99546.81;4928009;29;20062;-85
2023/09/21 06:13:25;;;;;;;3.15;1.67;;;;;;;19.22;38.18;99551.06;4923494;29;20047;-84
2023/09/21 06:15:53;;;;;;;3.22;1.45;;;;;;;19.21;38.13;99545.75;4923253;29;20051;-84
2023/09/21 06:18:22;;;;;;;3.17;1.60;;;;;;;19.20;38.09;99549.56;4938021;28;20509;-85
2023/09/21 06:20:55;;;;;;;2.92;1.75;;;;;;;19.23;38.20;99547.22;4922938;29;20066;-84
2023/09/21 06:23:27;;;;;;;3.40;1.52;;;;;;;19.22;38.12;99536.34;4939950;29;20043;-85
2023/09/21 06:25:57;;;;;;;3.15;1.80;;;;;;;19.22;37.93;99539.97;4926297;29;20170;-85
2023/09/21 06:28:28;;;;;;;3.55;1.95;;;;;;;19.25;38.43;99538.69;4928938;29;20054;-85
2023/09/21 06:31:04;;;;;;;2.97;1.58;;;;;;;19.24;38.44;99536.97;4948551;29;20078;-85
2023/09/21 06:33:34;;;;;;;3.35;1.60;;;;;;;19.23;38.38;99521.41;4930852;29;20502;-85
2023/09/21 06:36:04;;;;;;;2.97;1.80;;;;;;;19.27;38.53;99529.06;4941810;29;20055;-85
2023/09/21 06:38:36;;;;;;;2.90;1.45;;;;;;;19.32;38.23;99530.31;4922972;29;20061;-86
2023/09/21 06:41:04;;;;;;;3.00;1.70;;;;;;;19.35;38.38;99516.00;4943761;29;20047;-86
2023/09/21 06:43:35;;;;;;;3.40;1.80;;;;;;;19.41;38.42;99517.88;4926015;29;20137;-85
2023/09/21 06:46:18;;;;;;;3.65;1.73;;;;;;;19.43;38.53;99526.84;4921108;29;20608;-85
2023/09/21 06:48:48;;;;;;;3.38;1.77;;;;;;;19.42;38.27;99514.03;4922203;29;20447;-86
2023/09/21 06:51:17;;;;;;;4.18;1.60;;;;;;;19.45;38.58;99517.22;4923150;29;20075;-85
2023/09/21 06:53:48;;;;;;;3.10;1.67;;;;;;;19.53;38.31;99524.41;4916160;29;20343;-85
2023/09/21 06:56:23;;;;;;;3.17;1.50;;;;;;;19.49;38.56;99509.28;4935363;29;20051;-85
2023/09/21 06:58:52;;;;;;;3.40;1.60;;;;;;;19.55;38.34;99512.00;4920874;29;20425;-84
2023/09/21 07:01:21;;;;;;;4.18;1.70;;;;;;;19.53;38.13;99502.22;4925483;29;20051;-87
2023/09/21 07:03:51;;;;;;;3.60;1.95;;;;;;;19.54;38.60;99498.38;4954447;28;20067;-85
2023/09/21 07:06:20;;;;;;;3.10;1.65;;;;;;;19.58;38.54;99503.22;4928708;29;20047;-85
2023/09/21 07:08:50;;;;;;;3.83;1.80;;;;;;;19.61;39.05;99511.13;4926428;29;20059;-86
2023/09/21 07:11:24;;;;;;;4.28;1.58;;;;;;;19.70;38.96;99508.06;4923865;28;20051;-85
2023/09/21 07:13:54;;;;;;;3.55;1.88;;;;;;;19.81;39.01;99516.47;4928575;28;20095;-86
2023/09/21 07:16:23;;;;;;;2.78;1.60;;;;;;;19.91;39.39;99513.22;4933115;29;20043;-86
2023/09/21 07:18:54;;;;;;;3.10;1.67;;;;;;;20.05;39.16;99523.13;4929254;29;20056;-86
2023/09/21 07:21:22;;;;;;;4.18;1.70;;;;;;;20.17;39.30;99515.75;4924349;29;20606;-85
2023/09/21 07:23:51;;;;;;;3.38;1.80;;;;;;;20.34;39.42;99525.19;4933261;29;20269;-86
2023/09/21 07:26:22;;;;;;;3.33;1.50;;;;;;;20.52;39.16;99521.56;4948105;28;20055;-85
2023/09/21 07:28:58;;;;;;;3.22;1.50;;;;;;;20.74;39.21;99533.06;4923003;29;20047;-86
2023/09/21 07:31:27;;;;;;;3.35;1.65;;;;;;;20.91;39.10;99516.59;4924200;29;20047;-85
2023/09/21 07:33:58;;;;;;;3.90;1.90;;;;;;;21.13;38.56;99520.56;4924441;29;20404;-86
2023/09/21 07:36:26;;;;;;;5.15;1.90;;;;;;;21.34;38.48;99535.94;4920026;29;20078;-84
2023/09/21 07:38:56;;;;;;;3.65;1.90;;;;;;;21.53;38.58;99521.69;4921028;29;20605;-85
2023/09/21 07:41:25;;;;;;;3.20;1.77;;;;;;;21.72;38.31;99528.03;4939486;29;20098;-86
2023/09/21 07:43:55;;;;;;;3.72;1.63;;;;;;;21.97;37.86;99535.38;4920129;29;20400;-86
2023/09/21 07:46:23;;;;;;;3.35;2.10;;;;;;;22.13;37.96;99520.72;4919169;29;20086;-86
2023/09/21 07:48:51;;;;;;;4.72;2.00;;;;;;;22.35;37.66;99510.63;4924102;29;20039;-85
2023/09/21 07:51:26;;;;;;;3.50;1.70;;;;;;;22.59;37.35;99512.31;4926745;29;20047;-85
2023/09/21 07:53:57;;;;;;;3.33;1.70;;;;;;;22.76;37.08;99505.97;4924102;29;20056;-85
2023/09/21 07:56:26;;;;;;;4.63;1.73;;;;;;;22.94;36.75;99506.66;4942143;28;20066;-85
2023/09/21 07:58:58;;;;;;;3.97;1.90;;;;;;;23.12;36.32;99505.59;4929228;29;20043;-86
2023/09/21 08:01:31;;;;;;;4.35;1.70;;;;;;;23.25;36.23;99508.13;4926604;29;20050;-86
2023/09/21 08:03:59;;;;;;;2.28;1.55;;;;;;;23.38;35.83;99518.16;4945894;29;20165;-85
2023/09/21 08:06:28;;;;;;;3.10;1.60;;;;;;;23.47;35.82;99513.84;4930097;29;20492;-85
2023/09/21 08:08:57;;;;;;;3.50;1.80;;;;;;;23.60;34.97;99521.03;4925793;29;20051;-83
2023/09/21 08:11:26;;;;;;;4.43;1.70;;;;;;;23.66;35.15;99528.44;4926124;29;20043;-83
2023/09/21 08:13:55;;;;;;;2.92;1.70;;;;;;;23.71;34.84;99525.72;4927248;29;20047;-82
2023/09/21 08:16:25;;;;;;;4.03;1.70;;;;;;;23.78;34.33;99529.22;4917342;29;20044;-83
2023/09/21 08:18:54;;;;;;;3.20;1.73;;;;;;;23.80;34.40;99528.97;4919789;29;20040;-84
2023/09/21 08:21:23;;;;;;;3.58;1.70;;;;;;;23.82;34.20;99524.84;4919421;29;20105;-84
2023/09/21 08:23:52;;;;;;;3.15;1.67;;;;;;;23.83;34.52;99531.25;4916770;28;20592;-82
2023/09/21 08:26:20;;;;;;;3.67;1.88;;;;;;;23.83;34.15;99529.28;4916997;29;20140;-83
2023/09/21 08:28:49;;;;;;;3.58;1.63;;;;;;;23.82;34.09;99527.63;4916958;29;20062;-83
2023/09/21 08:31:19;;;;;;;2.75;1.65;;;;;;;23.80;34.18;99529.81;4921437;29;20051;-83
2023/09/21 08:33:51;;;;;;;2.05;1.40;;;;;;;23.81;34.01;99527.88;4918686;29;20066;-83
2023/09/21 08:36:19;;;;;;;3.95;1.90;;;;;;;23.77;34.26;99539.53;4951798;28;20059;-83
2023/09/21 08:38:47;;;;;;;2.88;1.60;;;;;;;23.77;34.25;99541.50;4919301;29;20055;-83
2023/09/21 08:41:15;;;;;;;2.92;1.60;;;;;;;23.76;33.98;99545.38;4919102;29;20067;-83
2023/09/21 08:43:47;;;;;;;3.17;1.83;;;;;;;23.76;34.26;99543.44;4916923;29;20055;-85
2023/09/21 08:46:18;;;;;;;4.38;1.90;;;;;;;23.77;34.24;99559.09;4935281;29;20100;-84
2023/09/21 08:48:50;;;;;;;3.45;1.85;;;;;;;23.77;33.90;99538.69;4912403;29;20051;-84
2023/09/21 08:51:20;;;;;;;4.50;1.80;;;;;;;23.73;34.35;99543.94;4914134;29;20070;-83
2023/09/21 08:53:51;;;;;;;3.53;1.80;;;;;;;23.73;34.24;99534.69;4915600;29;20701;-84
2023/09/21 08:56:22;;;;;;;3.05;1.58;;;;;;;23.74;34.22;99550.38;4945418;28;20059;-83
2023/09/21 08:58:54;;;;;;;3.00;1.60;;;;;;;23.75;34.50;99549.25;4913176;29;20051;-84
2023/09/21 09:01:23;;;;;;;5.20;2.00;;;;;;;23.69;34.19;99539.09;4918711;29;20047;-84
2023/09/21 09:03:51;;;;;;;3.28;1.70;;;;;;;23.70;34.11;99561.19;4918000;29;20434;-84
2023/09/21 09:06:21;;;;;;;2.85;1.70;;;;;;;23.69;33.82;99545.53;4920783;29;20125;-83
2023/09/21 09:08:49;;;;;;;5.68;1.85;;;;;;;23.65;34.05;99558.31;4914690;29;20114;-82
2023/09/21 09:11:35;;;;;;;3.38;1.60;;;;;;;23.63;34.07;99556.84;4931104;29;20389;-82
2023/09/21 09:14:05;;;;;;;3.83;1.88;;;;;;;23.58;34.06;99553.97;4915851;29;20427;-83
2023/09/21 09:16:34;;;;;;;3.65;1.55;;;;;;;23.54;34.14;99558.38;4914597;29;20118;-84
2023/09/21 09:19:05;;;;;;;3.67;1.63;;;;;;;23.49;34.15;99556.34;4915565;29;20058;-84
2023/09/21 09:21:35;;;;;;;2.80;1.57;;;;;;;23.44;34.18;99566.53;4922936;29;20138;-84
2023/09/21 09:24:04;;;;;;;3.30;1.70;;;;;;;23.38;34.15;99563.66;4915616;29;20472;-83
2023/09/21 09:26:32;;;;;;;3.67;1.95;;;;;;;23.33;34.24;99557.97;4913964;29;20075;-84
2023/09/21 09:29:11;;;;;;;2.78;1.60;;;;;;;23.28;34.31;99555.09;4928996;28;20055;-85
2023/09/21 09:35:34;;;;;;;2.72;1.60;;;;;;;23.09;34.56;99564.69;4929524;29;20051;-84
2023/09/21 09:38:08;;;;;;;3.15;1.90;;;;;;;23.13;34.81;99560.34;4927105;29;20050;-83
2023/09/21 09:40:38;;;;;;;3.13;1.60;;;;;;;23.08;34.77;99554.66;4928933;29;20479;-84
2023/09/21 09:43:08;;;;;;;3.72;1.95;;;;;;;23.06;34.83;99551.25;4930523;29;20061;-85
2023/09/21 09:45:38;;;;;;;3.00;1.63;;;;;;;23.03;35.12;99551.75;4926187;29;20057;-82
2023/09/21 09:48:12;;;;;;;2.88;1.60;;;;;;;23.03;35.13;99549.81;4927978;29;20333;-82
2023/09/21 09:50:42;;;;;;;3.40;1.80;;;;;;;22.99;35.02;99545.84;4927400;29;20055;-83
2023/09/21 09:53:13;;;;;;;3.30;1.58;;;;;;;22.98;35.29;99546.94;4944920;28;20075;-82
2023/09/21 09:55:43;;;;;;;3.03;1.45;;;;;;;22.96;35.26;99540.72;4928992;29;20058;-82
2023/09/21 09:58:12;;;;;;;2.80;1.83;;;;;;;22.97;35.60;99538.78;4934596;29;20055;-82
2023/09/21 10:00:44;;;;;;;3.58;1.70;;;;;;;22.96;35.55;99543.53;4935048;29;20063;-82
2023/09/21 10:03:14;;;;;;;2.90;1.70;;;;;;;22.97;35.58;99539.66;4934834;29;20051;-82
2023/09/21 10:05:44;;;;;;;2.90;1.70;;;;;;;22.99;35.44;99536.63;4932430;29;20055;-83
2023/09/21 10:08:15;;;;;;;3.90;1.73;;;;;;;22.99;35.69;99536.63;4933758;28;20047;-84
2023/09/21 10:10:46;;;;;;;2.88;1.60;;;;;;;22.99;35.34;99525.44;4933353;29;20055;-84
2023/09/21 10:13:16;;;;;;;3.58;1.70;;;;;;;23.00;35.62;99530.75;4932830;29;20070;-84
2023/09/21 10:15:50;;;;;;;3.13;1.58;;;;;;;23.01;35.74;99526.03;4931048;29;20059;-82
2023/09/21 10:18:29;;;;;;;4.47;1.77;;;;;;;23.05;35.77;99534.75;4933211;29;20047;-82
2023/09/21 10:21:12;;;;;;;3.95;1.63;;;;;;;23.05;35.70;99529.19;4934069;29;20063;-83
2023/09/21 10:24:01;;;;;;;2.95;1.60;;;;;;;23.01;35.32;99518.50;4931108;29;20043;-82
2023/09/21 10:26:33;;;;;;;3.67;1.60;;;;;;;23.01;35.17;99509.28;4931361;29;20101;-84
2023/09/21 10:29:03;;;;;;;3.67;1.58;;;;;;;23.00;35.60;99514.00;4933840;29;20146;-82
2023/09/21 10:31:33;;;;;;;2.60;1.40;;;;;;;23.03;35.21;99509.88;4938222;29;20945;-83
2023/09/21 10:34:08;;;;;;;3.65;1.77;;;;;;;23.05;35.49;99502.13;4934943;29;20059;-83
2023/09/21 10:36:42;;;;;;;2.53;1.38;;;;;;;23.04;35.58;99503.22;4929122;29;20486;-84
2023/09/21 10:39:25;;;;;;;2.33;1.42;;;;;;;23.05;35.87;99512.44;4933792;29;20059;-83
2023/09/21 10:41:56;;;;;;;3.47;1.60;;;;;;;23.01;35.71;99510.13;4928260;28;20147;-83
2023/09/21 10:45:01;;;;;;;3.38;1.60;;;;;;;23.02;35.74;99509.03;4930061;29;20052;-83
2023/09/21 10:47:47;;;;;;;2.65;1.52;;;;;;;23.01;35.94;99498.97;4955549;29;20154;-83
2023/09/21 10:50:17;;;;;;;2.25;1.45;;;;;;;23.02;35.85;99497.03;4934649;29;20055;-85
2023/09/21 10:52:50;;;;;;;3.45;1.70;;;;;;;23.03;35.92;99498.72;4939498;29;20437;-83
2023/09/21 10:55:22;;;;;;;3.00;1.58;;;;;;;23.02;35.96;99500.66;4928025;29;20047;-85
2023/09/21 10:57:53;;;;;;;2.75;1.60;;;;;;;23.01;35.78;99501.75;4930536;29;20457;-84
2023/09/21 11:00:31;;;;;;;3.35;1.40;;;;;;;22.99;35.63;99501.19;4917550;29;20047;-86
2023/09/21 11:03:02;;;;;;;3.58;1.70;;;;;;;22.99;35.58;99505.91;4928575;29;20059;-86
2023/09/21 11:05:33;;;;;;;2.92;1.50;;;;;;;22.96;35.92;99495.25;4941089;29;20055;-86
2023/09/21 11:08:08;;;;;;;2.78;1.50;;;;;;;22.93;35.74;99507.75;4932597;29;20098;-85
2023/09/21 11:11:06;;;;;;;4.43;1.50;;;;;;;22.91;35.72;99486.78;4935549;29;20075;-84
2023/09/21 11:17:16;;;;;;;2.97;1.40;;;;;;;22.81;35.80;99481.84;4861935;29;20075;-85
2023/09/21 11:23:44;;;;;;;2.33;1.20;;;;;;;22.77;35.59;99465.84;4940993;29;20047;-86
2023/09/21 11:26:15;;;;;;;2.72;1.40;;;;;;;22.75;36.02;99459.69;4941503;29;20039;-85
2023/09/21 11:28:46;;;;;;;2.42;1.20;;;;;;;22.71;35.73;99462.09;4943367;28;20157;-84
2023/09/21 11:31:17;;;;;;;2.83;1.45;;;;;;;22.72;35.85;99449.84;4961896;28;20043;-85
2023/09/21 11:33:54;;;;;;;2.30;1.50;;;;;;;22.68;35.72;99447.78;4961110;28;20066;-84
2023/09/21 11:36:25;;;;;;;2.67;1.50;;;;;;;22.69;36.00;99455.06;4946240;28;20042;-84
2023/09/21 11:38:54;;;;;;;2.88;1.70;;;;;;;22.66;35.68;99439.69;4939112;28;20056;-84
2023/09/21 11:41:24;;;;;;;2.58;1.40;;;;;;;22.69;36.06;99446.69;4942601;28;20035;-85
2023/09/21 11:43:53;;;;;;;2.55;1.45;;;;;;;22.63;35.71;99440.19;4937790;28;20079;-85
2023/09/21 11:46:22;;;;;;;2.50;1.50;;;;;;;22.65;35.97;99443.56;4923712;29;20103;-85
2023/09/21 11:48:53;;;;;;;2.58;1.60;;;;;;;22.63;36.04;99440.19;4925826;29;20138;-85
2023/09/21 11:51:35;;;;;;;3.22;1.42;;;;;;;22.62;36.34;99442.13;4925672;29;20078;-84
2023/09/21 11:54:11;;;;;;;3.47;1.40;;;;;;;22.59;36.19;99445.41;4946464;28;20820;-85
2023/09/21 11:56:45;;;;;;;3.40;1.80;;;;;;;22.60;36.32;99433.16;4933261;29;20055;-85
2023/09/21 11:59:47;;;;;;;2.20;1.35;;;;;;;22.53;36.43;99424.09;4965231;28;20122;-85
2023/09/21 12:02:17;;;;;;;3.08;1.63;;;;;;;22.50;36.25;99426.50;4930447;29;20057;-85
2023/09/21 12:04:45;;;;;;;3.80;1.42;;;;;;;22.52;36.33;99421.50;4918600;29;20054;-85